VOZ472 YBBN-YPPH
Flight info
| Callsign | VOZ472 |
|---|---|
| Flight time | N/A |
| Altitude | 34000 |
| Route | SANEG2/19L SANEG Q4 PAVBI Q16 LOSPI/N0460F380 DCT KADUV DCT WHA J21 MUBID Q10 MALUP Q158 KABLI |
| Aircraft | B738/M-SAE3DGHIM1RWZ/LB1 |
Departure
| Time | N/A |
|---|---|
| Airport | Brisbane International Airport (YBBN) |
Arrival
| Time | 2026-05-06 13:50 |
|---|---|
| Airport | Perth International Airport (YPPH) |
| Time | Latitude | Longitude | Altitude | Speed | Heading |
|---|---|---|---|---|---|
| 2026-05-06 11:21 | -33.01250 | 135.65066 | 38376 ft | 417 kts | 272° |
| 2026-05-06 11:21 | -33.01029 | 135.58154 | 38372 ft | 417 kts | 272° |
| 2026-05-06 11:22 | -33.00805 | 135.51295 | 38380 ft | 416 kts | 272° |
| 2026-05-06 11:22 | -33.00576 | 135.44391 | 38376 ft | 416 kts | 272° |
| 2026-05-06 11:23 | -33.00344 | 135.37494 | 38377 ft | 416 kts | 272° |
| 2026-05-06 11:23 | -33.00109 | 135.30639 | 38378 ft | 416 kts | 272° |
| 2026-05-06 11:24 | -32.99909 | 135.24867 | 38383 ft | 416 kts | 272° |
| 2026-05-06 11:24 | -32.99708 | 135.19141 | 38382 ft | 415 kts | 272° |
| 2026-05-06 11:25 | -32.99506 | 135.13456 | 38384 ft | 415 kts | 272° |
| 2026-05-06 11:25 | -32.99104 | 135.02777 | 38388 ft | 414 kts | 272° |
| 2026-05-06 11:26 | -32.98883 | 134.97070 | 38456 ft | 413 kts | 272° |
| 2026-05-06 11:26 | -32.98575 | 134.89190 | 38389 ft | 405 kts | 272° |
| 2026-05-06 11:27 | -32.98310 | 134.82486 | 38387 ft | 404 kts | 272° |
| 2026-05-06 11:27 | -32.98134 | 134.78062 | 38386 ft | 403 kts | 272° |
| 2026-05-06 11:28 | -32.97775 | 134.69188 | 38390 ft | 403 kts | 272° |
| 2026-05-06 11:28 | -32.97500 | 134.62503 | 38393 ft | 404 kts | 272° |
| 2026-05-06 11:29 | -32.97222 | 134.55828 | 38395 ft | 405 kts | 272° |
| 2026-05-06 11:29 | -32.96987 | 134.50232 | 38396 ft | 407 kts | 272° |
| 2026-05-06 11:30 | -32.96649 | 134.42324 | 38396 ft | 409 kts | 272° |
| 2026-05-06 11:30 | -32.96355 | 134.35543 | 38396 ft | 411 kts | 272° |
| 2026-05-06 11:31 | -32.96059 | 134.28764 | 38394 ft | 412 kts | 272° |
| 2026-05-06 11:31 | -32.95756 | 134.21933 | 38399 ft | 414 kts | 272° |
| 2026-05-06 11:32 | -32.95115 | 134.07740 | 38392 ft | 414 kts | 272° |
| 2026-05-06 11:33 | -32.94799 | 134.00877 | 38396 ft | 414 kts | 272° |
| 2026-05-06 11:33 | -32.94481 | 133.94057 | 38397 ft | 413 kts | 272° |
| 2026-05-06 11:34 | -32.94214 | 133.88377 | 38402 ft | 413 kts | 272° |
| 2026-05-06 11:34 | -32.93889 | 133.81541 | 38403 ft | 412 kts | 272° |
| 2026-05-06 11:35 | -32.93561 | 133.74730 | 38408 ft | 411 kts | 272° |
| 2026-05-06 11:35 | -32.93232 | 133.67967 | 38406 ft | 410 kts | 272° |
| 2026-05-06 11:36 | -32.92898 | 133.61181 | 38405 ft | 410 kts | 272° |
| 2026-05-06 11:36 | -32.92563 | 133.54445 | 38407 ft | 410 kts | 272° |
| 2026-05-06 11:37 | -32.92222 | 133.47661 | 38405 ft | 410 kts | 272° |
| 2026-05-06 11:37 | -32.91877 | 133.40884 | 38407 ft | 410 kts | 272° |
| 2026-05-06 11:38 | -32.91538 | 133.34144 | 38400 ft | 410 kts | 272° |
| 2026-05-06 11:38 | -32.91188 | 133.27343 | 38412 ft | 411 kts | 272° |
| 2026-05-06 11:39 | -32.90827 | 133.20577 | 38409 ft | 411 kts | 272° |
| 2026-05-06 11:39 | -32.90462 | 133.13760 | 38410 ft | 412 kts | 272° |
| 2026-05-06 11:40 | -32.90096 | 133.06927 | 38413 ft | 413 kts | 272° |
| 2026-05-06 11:40 | -32.89727 | 133.00122 | 38417 ft | 414 kts | 272° |
| 2026-05-06 11:41 | -32.89353 | 132.93275 | 38415 ft | 414 kts | 272° |
| 2026-05-06 11:41 | -32.88978 | 132.86473 | 38420 ft | 415 kts | 272° |
| 2026-05-06 11:42 | -32.88595 | 132.79606 | 38415 ft | 415 kts | 272° |
| 2026-05-06 11:42 | -32.88208 | 132.72729 | 38417 ft | 416 kts | 273° |
| 2026-05-06 11:43 | -32.87820 | 132.65908 | 38419 ft | 416 kts | 273° |
| 2026-05-06 11:43 | -32.87426 | 132.59036 | 38426 ft | 416 kts | 273° |
| 2026-05-06 11:44 | -32.86828 | 132.48735 | 38420 ft | 415 kts | 273° |
| 2026-05-06 11:44 | -32.86427 | 132.41899 | 38424 ft | 415 kts | 273° |
| 2026-05-06 11:45 | -32.86022 | 132.35073 | 38423 ft | 415 kts | 273° |
| 2026-05-06 11:45 | -32.85614 | 132.28231 | 38423 ft | 415 kts | 273° |
| 2026-05-06 11:46 | -32.85203 | 132.21365 | 38423 ft | 415 kts | 273° |
| 2026-05-06 11:46 | -32.84788 | 132.14508 | 38423 ft | 415 kts | 273° |
| 2026-05-06 11:47 | -32.84372 | 132.07693 | 38422 ft | 415 kts | 273° |
| 2026-05-06 11:47 | -32.83951 | 132.00841 | 38423 ft | 415 kts | 273° |
| 2026-05-06 11:48 | -32.83527 | 131.94020 | 38427 ft | 415 kts | 273° |
| 2026-05-06 11:48 | -32.83097 | 131.87148 | 38429 ft | 416 kts | 273° |
| 2026-05-06 11:49 | -32.82662 | 131.80273 | 38428 ft | 416 kts | 273° |
| 2026-05-06 11:49 | -32.82227 | 131.73440 | 38433 ft | 416 kts | 273° |
| 2026-05-06 11:50 | -32.81785 | 131.66562 | 38435 ft | 417 kts | 273° |
| 2026-05-06 11:50 | -32.81338 | 131.59675 | 38435 ft | 417 kts | 273° |
| 2026-05-06 11:51 | -32.80890 | 131.52822 | 38436 ft | 418 kts | 273° |
| 2026-05-06 11:51 | -32.80436 | 131.45939 | 38434 ft | 418 kts | 273° |
| 2026-05-06 11:52 | -32.79979 | 131.39071 | 38435 ft | 418 kts | 273° |
| 2026-05-06 11:52 | -32.79516 | 131.32165 | 38434 ft | 418 kts | 273° |
| 2026-05-06 11:53 | -32.79048 | 131.25244 | 38434 ft | 419 kts | 273° |
| 2026-05-06 11:53 | -32.78581 | 131.18392 | 38436 ft | 419 kts | 274° |
| 2026-05-06 11:54 | -32.78106 | 131.11477 | 38436 ft | 419 kts | 274° |
| 2026-05-06 11:54 | -32.77626 | 131.04556 | 38438 ft | 419 kts | 274° |
| 2026-05-06 11:55 | -32.77147 | 130.97691 | 38439 ft | 419 kts | 274° |
| 2026-05-06 11:55 | -32.76660 | 130.90779 | 38439 ft | 419 kts | 274° |
| 2026-05-06 11:56 | -32.76169 | 130.83851 | 38435 ft | 420 kts | 274° |
| 2026-05-06 11:56 | -32.75678 | 130.76985 | 38445 ft | 420 kts | 274° |
| 2026-05-06 11:57 | -32.75179 | 130.70063 | 38444 ft | 420 kts | 274° |
| 2026-05-06 11:57 | -32.74675 | 130.63131 | 38443 ft | 420 kts | 274° |
| 2026-05-06 11:58 | -32.74172 | 130.56252 | 38442 ft | 420 kts | 274° |
| 2026-05-06 11:58 | -32.73661 | 130.49326 | 38443 ft | 421 kts | 274° |
| 2026-05-06 11:59 | -32.73146 | 130.42392 | 38450 ft | 421 kts | 274° |
| 2026-05-06 11:59 | -32.72630 | 130.35494 | 38446 ft | 421 kts | 274° |
| 2026-05-06 12:00 | -32.72107 | 130.28558 | 38447 ft | 421 kts | 274° |
| 2026-05-06 12:00 | -32.71580 | 130.21626 | 38453 ft | 421 kts | 274° |
| 2026-05-06 12:01 | -32.71049 | 130.14682 | 38451 ft | 422 kts | 274° |
| 2026-05-06 12:01 | -32.70517 | 130.07783 | 38449 ft | 422 kts | 274° |
| 2026-05-06 12:02 | -32.69977 | 130.00832 | 38450 ft | 422 kts | 274° |
| 2026-05-06 12:02 | -32.69434 | 129.93885 | 38445 ft | 422 kts | 274° |
| 2026-05-06 12:03 | -32.68890 | 129.86973 | 38447 ft | 422 kts | 274° |
| 2026-05-06 12:03 | -32.68338 | 129.80023 | 38459 ft | 423 kts | 274° |
| 2026-05-06 12:04 | -32.67782 | 129.73064 | 38455 ft | 423 kts | 274° |
| 2026-05-06 12:04 | -32.67223 | 129.66103 | 38456 ft | 423 kts | 274° |
| 2026-05-06 12:05 | -32.66662 | 129.59184 | 38456 ft | 424 kts | 274° |
| 2026-05-06 12:05 | -32.66093 | 129.52204 | 38458 ft | 424 kts | 274° |
| 2026-05-06 12:06 | -32.65520 | 129.45228 | 38461 ft | 424 kts | 274° |
| 2026-05-06 12:06 | -32.64946 | 129.38288 | 38459 ft | 425 kts | 274° |
| 2026-05-06 12:07 | -32.64363 | 129.31286 | 38459 ft | 425 kts | 274° |
| 2026-05-06 12:07 | -32.63781 | 129.24338 | 38450 ft | 425 kts | 274° |
| 2026-05-06 12:08 | -32.63190 | 129.17345 | 38459 ft | 425 kts | 274° |
| 2026-05-06 12:08 | -32.62596 | 129.10343 | 38457 ft | 426 kts | 274° |
| 2026-05-06 12:09 | -32.62001 | 129.03391 | 38448 ft | 426 kts | 274° |
| 2026-05-06 12:09 | -32.61399 | 128.96396 | 38462 ft | 426 kts | 274° |
| 2026-05-06 12:10 | -32.60792 | 128.89385 | 38448 ft | 426 kts | 274° |
| 2026-05-06 12:10 | -32.60185 | 128.82431 | 38450 ft | 426 kts | 274° |
| 2026-05-06 12:11 | -32.59569 | 128.75409 | 38461 ft | 427 kts | 274° |
| 2026-05-06 12:11 | -32.58952 | 128.68428 | 38467 ft | 427 kts | 274° |
| 2026-05-06 12:12 | -32.58329 | 128.61422 | 38453 ft | 427 kts | 274° |
| 2026-05-06 12:12 | -32.57808 | 128.55599 | 38450 ft | 427 kts | 274° |
| 2026-05-06 12:13 | -32.57071 | 128.47400 | 38463 ft | 428 kts | 274° |
| 2026-05-06 12:13 | -32.56434 | 128.40377 | 38467 ft | 428 kts | 274° |
| 2026-05-06 12:14 | -32.55798 | 128.33398 | 38459 ft | 428 kts | 274° |
| 2026-05-06 12:14 | -32.55152 | 128.26357 | 38470 ft | 428 kts | 274° |
| 2026-05-06 12:15 | -32.54505 | 128.19339 | 38466 ft | 429 kts | 275° |
| 2026-05-06 12:15 | -32.53855 | 128.12341 | 38459 ft | 429 kts | 275° |
| 2026-05-06 12:16 | -32.53197 | 128.05297 | 38466 ft | 429 kts | 274° |
| 2026-05-06 12:16 | -32.52538 | 127.98290 | 38465 ft | 430 kts | 275° |
| 2026-05-06 12:17 | -32.51864 | 127.91245 | 38471 ft | 430 kts | 275° |
| 2026-05-06 12:17 | -32.51183 | 127.84185 | 38473 ft | 430 kts | 275° |
| 2026-05-06 12:18 | -32.50503 | 127.77169 | 38469 ft | 430 kts | 275° |
| 2026-05-06 12:18 | -32.49816 | 127.70116 | 38471 ft | 431 kts | 275° |
| 2026-05-06 12:19 | -32.49125 | 127.63061 | 38471 ft | 431 kts | 275° |
| 2026-05-06 12:19 | -32.48431 | 127.56007 | 38472 ft | 431 kts | 275° |
| 2026-05-06 12:20 | -32.47850 | 127.50143 | 38474 ft | 431 kts | 275° |
| 2026-05-06 12:20 | -32.47032 | 127.41931 | 38473 ft | 431 kts | 275° |
| 2026-05-06 12:21 | -32.46444 | 127.36058 | 38473 ft | 431 kts | 275° |
| 2026-05-06 12:21 | -32.45615 | 127.27830 | 38467 ft | 432 kts | 275° |
| 2026-05-06 12:22 | -32.45019 | 127.21948 | 38474 ft | 432 kts | 275° |
| 2026-05-06 12:22 | -32.44299 | 127.14875 | 38472 ft | 432 kts | 275° |
| 2026-05-06 12:23 | -32.43576 | 127.07814 | 38474 ft | 432 kts | 275° |
| 2026-05-06 12:23 | -32.42848 | 127.00744 | 38473 ft | 432 kts | 275° |
| 2026-05-06 12:24 | -32.42120 | 126.93715 | 38474 ft | 433 kts | 275° |
| 2026-05-06 12:24 | -32.41384 | 126.86645 | 38474 ft | 433 kts | 275° |
| 2026-05-06 12:25 | -32.40642 | 126.79560 | 38474 ft | 433 kts | 275° |
| 2026-05-06 12:25 | -32.39897 | 126.72483 | 38479 ft | 433 kts | 275° |
| 2026-05-06 12:26 | -32.39148 | 126.65406 | 38479 ft | 433 kts | 275° |
| 2026-05-06 12:26 | -32.38399 | 126.58368 | 38475 ft | 433 kts | 275° |
| 2026-05-06 12:27 | -32.37642 | 126.51294 | 38477 ft | 434 kts | 275° |
| 2026-05-06 12:27 | -32.36881 | 126.44215 | 38478 ft | 434 kts | 275° |
| 2026-05-06 12:28 | -32.36114 | 126.37131 | 38479 ft | 434 kts | 275° |
| 2026-05-06 12:28 | -32.35344 | 126.30050 | 38480 ft | 434 kts | 275° |
| 2026-05-06 12:29 | -32.34571 | 126.22970 | 38483 ft | 434 kts | 275° |
| 2026-05-06 12:29 | -32.33792 | 126.15884 | 38477 ft | 434 kts | 275° |
| 2026-05-06 12:30 | -32.33014 | 126.08844 | 38481 ft | 434 kts | 275° |
| 2026-05-06 12:30 | -32.32228 | 126.01760 | 38490 ft | 435 kts | 275° |
| 2026-05-06 12:31 | -32.31436 | 125.94665 | 38487 ft | 435 kts | 275° |
| 2026-05-06 12:31 | -32.30640 | 125.87571 | 38486 ft | 435 kts | 275° |
| 2026-05-06 12:32 | -32.29844 | 125.80515 | 38490 ft | 435 kts | 275° |
| 2026-05-06 12:32 | -32.29039 | 125.73411 | 38481 ft | 435 kts | 275° |
| 2026-05-06 12:33 | -32.28231 | 125.66313 | 38494 ft | 435 kts | 275° |
| 2026-05-06 12:33 | -32.27425 | 125.59269 | 38489 ft | 435 kts | 275° |
| 2026-05-06 12:34 | -32.26606 | 125.52153 | 38489 ft | 436 kts | 275° |
| 2026-05-06 12:34 | -32.26146 | 125.45029 | 38506 ft | 433 kts | 269° |
| 2026-05-06 12:35 | -32.26150 | 125.37898 | 38493 ft | 434 kts | 268° |
| 2026-05-06 12:35 | -32.26176 | 125.30805 | 38496 ft | 434 kts | 268° |
| 2026-05-06 12:36 | -32.26162 | 125.23655 | 38498 ft | 434 kts | 268° |
| 2026-05-06 12:36 | -32.26123 | 125.16514 | 38498 ft | 434 kts | 268° |
| 2026-05-06 12:37 | -32.26073 | 125.09409 | 38502 ft | 434 kts | 268° |
| 2026-05-06 12:37 | -32.26017 | 125.02245 | 38500 ft | 435 kts | 268° |
| 2026-05-06 12:38 | -32.25959 | 124.95146 | 38500 ft | 435 kts | 269° |
| 2026-05-06 12:38 | -32.25897 | 124.87979 | 38499 ft | 435 kts | 269° |
| 2026-05-06 12:39 | -32.25831 | 124.80868 | 38500 ft | 435 kts | 269° |
| 2026-05-06 12:39 | -32.25761 | 124.73717 | 38501 ft | 435 kts | 269° |
| 2026-05-06 12:40 | -32.25687 | 124.66563 | 38499 ft | 435 kts | 269° |
| 2026-05-06 12:40 | -32.25609 | 124.59389 | 38499 ft | 435 kts | 269° |
| 2026-05-06 12:41 | -32.25527 | 124.52262 | 38505 ft | 435 kts | 269° |
| 2026-05-06 12:41 | -32.25441 | 124.45139 | 38502 ft | 435 kts | 269° |
| 2026-05-06 12:42 | -32.25351 | 124.37968 | 38505 ft | 435 kts | 269° |
| 2026-05-06 12:42 | -32.25257 | 124.30842 | 38509 ft | 435 kts | 269° |
| 2026-05-06 12:43 | -32.25158 | 124.23674 | 38505 ft | 435 kts | 269° |
| 2026-05-06 12:43 | -32.25056 | 124.16509 | 38507 ft | 436 kts | 269° |
| 2026-05-06 12:44 | -32.24950 | 124.09378 | 38507 ft | 436 kts | 269° |
| 2026-05-06 12:44 | -32.24839 | 124.02210 | 38503 ft | 436 kts | 269° |
| 2026-05-06 12:45 | -32.24725 | 123.95075 | 38510 ft | 436 kts | 269° |
| 2026-05-06 12:46 | -32.24546 | 123.84327 | 38510 ft | 436 kts | 269° |
| 2026-05-06 12:46 | -32.24421 | 123.77155 | 38510 ft | 436 kts | 269° |
| 2026-05-06 12:47 | -32.24293 | 123.70011 | 38514 ft | 436 kts | 269° |
| 2026-05-06 12:47 | -32.24160 | 123.62862 | 38509 ft | 437 kts | 269° |
| 2026-05-06 12:48 | -32.24023 | 123.55675 | 38516 ft | 437 kts | 269° |
| 2026-05-06 12:48 | -32.23883 | 123.48530 | 38514 ft | 437 kts | 269° |
| 2026-05-06 12:49 | -32.23737 | 123.41330 | 38516 ft | 437 kts | 269° |
| 2026-05-06 12:49 | -32.23588 | 123.34186 | 38514 ft | 437 kts | 269° |
| 2026-05-06 12:50 | -32.23435 | 123.27006 | 38517 ft | 437 kts | 269° |
| 2026-05-06 12:50 | -32.23277 | 123.19807 | 38518 ft | 437 kts | 270° |
| 2026-05-06 12:51 | -32.23116 | 123.12613 | 38518 ft | 438 kts | 270° |
| 2026-05-06 12:51 | -32.22951 | 123.05469 | 38518 ft | 438 kts | 270° |
| 2026-05-06 12:52 | -32.22781 | 122.98269 | 38517 ft | 438 kts | 270° |
| 2026-05-06 12:52 | -32.22607 | 122.91072 | 38522 ft | 438 kts | 270° |
| 2026-05-06 12:53 | -32.22429 | 122.83880 | 38514 ft | 438 kts | 270° |
| 2026-05-06 12:53 | -32.22246 | 122.76689 | 38521 ft | 438 kts | 270° |
| 2026-05-06 12:54 | -32.22061 | 122.69528 | 38520 ft | 438 kts | 270° |
| 2026-05-06 12:54 | -32.21871 | 122.62336 | 38513 ft | 438 kts | 270° |
| 2026-05-06 12:55 | -32.21676 | 122.55133 | 38517 ft | 438 kts | 270° |
| 2026-05-06 12:55 | -32.21477 | 122.47923 | 38513 ft | 439 kts | 270° |
| 2026-05-06 12:56 | -32.21276 | 122.40754 | 38515 ft | 439 kts | 270° |
| 2026-05-06 12:56 | -32.21068 | 122.33534 | 38513 ft | 439 kts | 270° |
| 2026-05-06 12:57 | -32.20857 | 122.26335 | 38512 ft | 439 kts | 270° |
| 2026-05-06 12:57 | -32.20643 | 122.19167 | 38512 ft | 439 kts | 270° |
| 2026-05-06 12:58 | -32.20424 | 122.11950 | 38510 ft | 439 kts | 270° |
| 2026-05-06 12:58 | -32.20200 | 122.04735 | 38510 ft | 440 kts | 270° |
| 2026-05-06 12:59 | -32.19972 | 121.97507 | 38512 ft | 440 kts | 270° |
| 2026-05-06 12:59 | -32.19742 | 121.90333 | 38510 ft | 440 kts | 270° |
| 2026-05-06 13:00 | -32.19506 | 121.83106 | 38508 ft | 440 kts | 270° |
| 2026-05-06 13:00 | -32.19502 | 121.75888 | 38514 ft | 438 kts | 265° |
| 2026-05-06 13:01 | -32.19937 | 121.68736 | 38508 ft | 438 kts | 264° |
| 2026-05-06 13:01 | -32.20412 | 121.61534 | 38509 ft | 439 kts | 264° |
| 2026-05-06 13:02 | -32.20844 | 121.54343 | 38509 ft | 439 kts | 264° |
| 2026-05-06 13:02 | -32.21246 | 121.47170 | 38508 ft | 439 kts | 264° |
| 2026-05-06 13:03 | -32.21640 | 121.39966 | 38508 ft | 439 kts | 265° |
| 2026-05-06 13:03 | -32.22026 | 121.32801 | 38513 ft | 439 kts | 265° |
| 2026-05-06 13:04 | -32.22412 | 121.25598 | 38515 ft | 439 kts | 265° |
| 2026-05-06 13:04 | -32.22794 | 121.18388 | 38516 ft | 439 kts | 265° |
| 2026-05-06 13:05 | -32.23171 | 121.11214 | 38512 ft | 439 kts | 265° |
| 2026-05-06 13:05 | -32.23545 | 121.04001 | 38513 ft | 439 kts | 265° |
| 2026-05-06 13:06 | -32.23915 | 120.96790 | 38511 ft | 440 kts | 265° |
| 2026-05-06 13:06 | -32.24279 | 120.89614 | 38511 ft | 440 kts | 265° |
| 2026-05-06 13:07 | -32.24642 | 120.82387 | 38510 ft | 440 kts | 265° |
| 2026-05-06 13:07 | -32.25001 | 120.75154 | 38512 ft | 440 kts | 265° |
| 2026-05-06 13:08 | -32.25353 | 120.67977 | 38511 ft | 440 kts | 265° |
| 2026-05-06 13:08 | -32.25703 | 120.60755 | 38511 ft | 440 kts | 265° |
| 2026-05-06 13:09 | -32.26049 | 120.53522 | 38514 ft | 440 kts | 265° |
| 2026-05-06 13:09 | -32.26389 | 120.46333 | 38509 ft | 440 kts | 265° |
| 2026-05-06 13:10 | -32.26671 | 120.40315 | 38513 ft | 440 kts | 265° |
| 2026-05-06 13:10 | -32.27062 | 120.31857 | 38519 ft | 440 kts | 265° |
| 2026-05-06 13:11 | -32.27337 | 120.25843 | 38516 ft | 440 kts | 265° |
| 2026-05-06 13:11 | -32.27661 | 120.18643 | 38524 ft | 440 kts | 265° |
| 2026-05-06 13:12 | -32.27983 | 120.11412 | 38511 ft | 440 kts | 265° |
| 2026-05-06 13:12 | -32.28302 | 120.04167 | 38521 ft | 440 kts | 265° |
| 2026-05-06 13:13 | -32.28615 | 119.96969 | 38521 ft | 441 kts | 265° |
| 2026-05-06 13:13 | -32.28925 | 119.89742 | 38512 ft | 441 kts | 265° |
| 2026-05-06 13:14 | -32.29231 | 119.82489 | 38518 ft | 440 kts | 265° |
| 2026-05-06 13:14 | -32.29528 | 119.75259 | 38519 ft | 440 kts | 266° |
| 2026-05-06 13:15 | -32.29820 | 119.68050 | 38514 ft | 440 kts | 266° |
| 2026-05-06 13:15 | -32.30110 | 119.60808 | 38506 ft | 441 kts | 266° |
| 2026-05-06 13:16 | -32.30395 | 119.53593 | 38511 ft | 440 kts | 266° |
| 2026-05-06 13:16 | -32.30677 | 119.46348 | 38518 ft | 441 kts | 266° |
| 2026-05-06 13:17 | -32.30954 | 119.39139 | 38510 ft | 441 kts | 266° |
| 2026-05-06 13:17 | -32.31228 | 119.31893 | 38508 ft | 441 kts | 266° |
| 2026-05-06 13:18 | -32.31497 | 119.24652 | 38507 ft | 441 kts | 266° |
| 2026-05-06 13:18 | -32.31763 | 119.17400 | 38503 ft | 440 kts | 266° |
| 2026-05-06 13:19 | -32.32023 | 119.10190 | 38503 ft | 441 kts | 266° |
| 2026-05-06 13:19 | -32.32280 | 119.02944 | 38509 ft | 441 kts | 266° |
| 2026-05-06 13:20 | -32.32531 | 118.95747 | 38504 ft | 441 kts | 266° |
| 2026-05-06 13:20 | -32.32780 | 118.88495 | 38501 ft | 441 kts | 266° |
| 2026-05-06 13:21 | -32.33025 | 118.81244 | 38500 ft | 441 kts | 266° |
| 2026-05-06 13:21 | -32.33264 | 118.74039 | 38500 ft | 441 kts | 266° |
| 2026-05-06 13:21 | -32.33384 | 118.70396 | 38166 ft | 446 kts | 266° |
| 2026-05-06 13:22 | -32.33504 | 118.66724 | 37701 ft | 446 kts | 266° |
| 2026-05-06 13:22 | -32.33622 | 118.63069 | 37143 ft | 443 kts | 266° |
| 2026-05-06 13:22 | -32.33738 | 118.59427 | 36583 ft | 443 kts | 266° |
| 2026-05-06 13:22 | -32.33853 | 118.55803 | 36130 ft | 439 kts | 266° |
| 2026-05-06 13:23 | -32.33966 | 118.52205 | 35700 ft | 436 kts | 266° |
| 2026-05-06 13:23 | -32.34077 | 118.48658 | 35280 ft | 433 kts | 266° |
| 2026-05-06 13:23 | -32.34187 | 118.45110 | 34868 ft | 430 kts | 266° |
| 2026-05-06 13:23 | -32.34296 | 118.41578 | 34444 ft | 427 kts | 266° |
| 2026-05-06 13:24 | -32.34403 | 118.38074 | 33972 ft | 425 kts | 266° |
| 2026-05-06 13:24 | -32.34509 | 118.34590 | 33533 ft | 422 kts | 266° |
| 2026-05-06 13:24 | -32.34611 | 118.31171 | 33120 ft | 418 kts | 266° |
| 2026-05-06 13:24 | -32.34713 | 118.27750 | 32715 ft | 415 kts | 266° |
| 2026-05-06 13:25 | -32.34813 | 118.24343 | 32315 ft | 412 kts | 266° |
| 2026-05-06 13:25 | -32.34912 | 118.20971 | 31922 ft | 409 kts | 266° |
| 2026-05-06 13:25 | -32.35009 | 118.17619 | 31529 ft | 406 kts | 266° |
| 2026-05-06 13:25 | -32.35104 | 118.14288 | 31143 ft | 404 kts | 266° |
| 2026-05-06 13:26 | -32.35199 | 118.10964 | 30759 ft | 402 kts | 266° |
| 2026-05-06 13:26 | -32.35290 | 118.07707 | 30349 ft | 400 kts | 267° |
| 2026-05-06 13:26 | -32.35382 | 118.04426 | 29858 ft | 399 kts | 267° |
| 2026-05-06 13:26 | -32.35472 | 118.01171 | 29619 ft | 397 kts | 267° |
| 2026-05-06 13:27 | -32.35564 | 117.97829 | 29372 ft | 413 kts | 267° |
| 2026-05-06 13:27 | -32.35659 | 117.94365 | 29123 ft | 429 kts | 267° |
| 2026-05-06 13:27 | -32.35756 | 117.90783 | 28864 ft | 438 kts | 267° |
| 2026-05-06 13:27 | -32.35851 | 117.87176 | 28598 ft | 438 kts | 267° |
| 2026-05-06 13:28 | -32.35943 | 117.83640 | 28338 ft | 432 kts | 267° |
| 2026-05-06 13:28 | -32.36034 | 117.80094 | 28066 ft | 428 kts | 267° |
| 2026-05-06 13:28 | -32.36124 | 117.76592 | 27626 ft | 423 kts | 267° |
| 2026-05-06 13:28 | -32.36212 | 117.73126 | 27171 ft | 419 kts | 267° |
| 2026-05-06 13:29 | -32.36299 | 117.69687 | 26699 ft | 416 kts | 267° |
| 2026-05-06 13:29 | -32.36295 | 117.66287 | 26235 ft | 413 kts | 273° |
| 2026-05-06 13:29 | -32.35859 | 117.62940 | 25782 ft | 411 kts | 283° |
| 2026-05-06 13:29 | -32.35108 | 117.59725 | 25334 ft | 408 kts | 285° |
| 2026-05-06 13:30 | -32.34311 | 117.56506 | 24883 ft | 406 kts | 286° |
| 2026-05-06 13:30 | -32.33510 | 117.53300 | 24410 ft | 405 kts | 285° |
| 2026-05-06 13:30 | -32.32718 | 117.50109 | 23926 ft | 403 kts | 285° |
| 2026-05-06 13:30 | -32.31939 | 117.46934 | 23420 ft | 401 kts | 285° |
| 2026-05-06 13:31 | -32.31169 | 117.43772 | 22941 ft | 398 kts | 285° |
| 2026-05-06 13:31 | -32.30412 | 117.40643 | 22478 ft | 395 kts | 285° |
| 2026-05-06 13:31 | -32.29660 | 117.37529 | 22032 ft | 391 kts | 285° |
| 2026-05-06 13:31 | -32.28924 | 117.34477 | 21593 ft | 388 kts | 285° |
| 2026-05-06 13:32 | -32.28185 | 117.31417 | 21158 ft | 385 kts | 285° |
| 2026-05-06 13:32 | -32.27451 | 117.28383 | 20727 ft | 383 kts | 284° |
| 2026-05-06 13:32 | -32.26722 | 117.25368 | 20295 ft | 380 kts | 284° |
| 2026-05-06 13:32 | -32.25996 | 117.22372 | 19871 ft | 378 kts | 284° |
| 2026-05-06 13:33 | -32.25272 | 117.19389 | 19440 ft | 375 kts | 284° |
| 2026-05-06 13:33 | -32.24553 | 117.16428 | 19014 ft | 373 kts | 284° |
| 2026-05-06 13:33 | -32.23847 | 117.13525 | 18574 ft | 372 kts | 284° |
| 2026-05-06 13:33 | -32.23135 | 117.10600 | 18098 ft | 369 kts | 284° |
| 2026-05-06 13:34 | -32.22426 | 117.07691 | 17650 ft | 367 kts | 284° |
| 2026-05-06 13:34 | -32.21722 | 117.04802 | 17221 ft | 364 kts | 284° |
| 2026-05-06 13:34 | -32.21021 | 117.01932 | 16799 ft | 361 kts | 284° |
| 2026-05-06 13:34 | -32.20325 | 116.99084 | 16380 ft | 359 kts | 284° |
| 2026-05-06 13:35 | -32.19634 | 116.96259 | 15964 ft | 356 kts | 285° |
| 2026-05-06 13:35 | -32.18955 | 116.93490 | 15558 ft | 354 kts | 285° |
| 2026-05-06 13:35 | -32.18248 | 116.90709 | 15150 ft | 353 kts | 289° |
| 2026-05-06 13:35 | -32.17039 | 116.88198 | 14751 ft | 352 kts | 307° |
| 2026-05-06 13:36 | -32.15520 | 116.85925 | 14361 ft | 350 kts | 308° |
| 2026-05-06 13:36 | -32.13989 | 116.83687 | 13917 ft | 349 kts | 308° |
| 2026-05-06 13:36 | -32.12487 | 116.81484 | 13479 ft | 347 kts | 308° |
| 2026-05-06 13:36 | -32.10986 | 116.79264 | 13055 ft | 345 kts | 308° |
| 2026-05-06 13:37 | -32.09501 | 116.77050 | 12653 ft | 343 kts | 308° |
| 2026-05-06 13:37 | -32.08028 | 116.74843 | 12246 ft | 340 kts | 308° |
| 2026-05-06 13:37 | -32.06567 | 116.72649 | 11842 ft | 338 kts | 307° |
| 2026-05-06 13:37 | -32.05115 | 116.70468 | 11455 ft | 336 kts | 307° |
| 2026-05-06 13:38 | -32.03691 | 116.68333 | 11118 ft | 333 kts | 307° |
| 2026-05-06 13:38 | -32.02283 | 116.66222 | 10979 ft | 323 kts | 307° |
| 2026-05-06 13:38 | -32.00915 | 116.64169 | 10836 ft | 314 kts | 307° |
| 2026-05-06 13:38 | -31.99584 | 116.62169 | 10698 ft | 305 kts | 307° |
| 2026-05-06 13:39 | -31.98290 | 116.60226 | 10575 ft | 296 kts | 307° |
| 2026-05-06 13:39 | -31.97043 | 116.58354 | 10422 ft | 289 kts | 307° |
| 2026-05-06 13:39 | -31.95804 | 116.56496 | 10120 ft | 288 kts | 308° |
| 2026-05-06 13:39 | -31.94574 | 116.54646 | 9826 ft | 286 kts | 306° |
| 2026-05-06 13:40 | -31.93476 | 116.52696 | 9540 ft | 284 kts | 300° |
| 2026-05-06 13:40 | -31.92475 | 116.50696 | 9254 ft | 283 kts | 300° |
| 2026-05-06 13:40 | -31.91486 | 116.48693 | 8969 ft | 281 kts | 300° |
| 2026-05-06 13:40 | -31.90510 | 116.46733 | 8685 ft | 280 kts | 300° |
| 2026-05-06 13:41 | -31.89514 | 116.44760 | 8406 ft | 279 kts | 301° |
| 2026-05-06 13:41 | -31.88518 | 116.42805 | 8124 ft | 278 kts | 301° |
| 2026-05-06 13:41 | -31.87520 | 116.40854 | 7829 ft | 277 kts | 301° |
| 2026-05-06 13:41 | -31.86518 | 116.38901 | 7310 ft | 282 kts | 301° |
| 2026-05-06 13:42 | -31.85505 | 116.36926 | 6914 ft | 279 kts | 302° |
| 2026-05-06 13:42 | -31.84516 | 116.34997 | 6607 ft | 272 kts | 302° |
| 2026-05-06 13:42 | -31.83558 | 116.33132 | 6351 ft | 267 kts | 302° |
| 2026-05-06 13:42 | -31.82596 | 116.31258 | 6113 ft | 267 kts | 302° |
| 2026-05-06 13:43 | -31.81626 | 116.29371 | 5889 ft | 271 kts | 303° |
| 2026-05-06 13:43 | -31.80640 | 116.27457 | 5652 ft | 275 kts | 303° |
| 2026-05-06 13:43 | -31.79666 | 116.25564 | 5391 ft | 269 kts | 303° |
| 2026-05-06 13:43 | -31.78895 | 116.23584 | 5150 ft | 266 kts | 289° |
| 2026-05-06 13:44 | -31.78405 | 116.21485 | 4922 ft | 265 kts | 285° |
| 2026-05-06 13:44 | -31.77959 | 116.19375 | 4682 ft | 266 kts | 285° |
| 2026-05-06 13:44 | -31.77506 | 116.17291 | 4451 ft | 266 kts | 286° |
| 2026-05-06 13:44 | -31.77032 | 116.15195 | 4218 ft | 265 kts | 287° |
| 2026-05-06 13:45 | -31.76549 | 116.13111 | 3985 ft | 264 kts | 287° |
| 2026-05-06 13:45 | -31.75648 | 116.09059 | 3506 ft | 249 kts | 277° |
| 2026-05-06 13:45 | -31.75898 | 116.07105 | 3301 ft | 238 kts | 245° |
| 2026-05-06 13:46 | -31.76733 | 116.05476 | 3132 ft | 228 kts | 229° |
| 2026-05-06 13:46 | -31.77691 | 116.04018 | 2934 ft | 220 kts | 227° |
| 2026-05-06 13:46 | -31.78619 | 116.02626 | 2754 ft | 214 kts | 227° |
| 2026-05-06 13:46 | -31.79516 | 116.01272 | 2585 ft | 210 kts | 225° |
| 2026-05-06 13:47 | -31.80657 | 116.00332 | 2484 ft | 195 kts | 185° |
| 2026-05-06 13:47 | -31.81993 | 116.00006 | 2371 ft | 200 kts | 184° |
| 2026-05-06 13:47 | -31.83359 | 115.99629 | 2003 ft | 195 kts | 186° |
| 2026-05-06 13:47 | -31.84630 | 115.99254 | 1734 ft | 181 kts | 186° |
| 2026-05-06 13:48 | -31.85806 | 115.98909 | 1478 ft | 172 kts | 187° |
| 2026-05-06 13:48 | -31.86935 | 115.98579 | 1278 ft | 158 kts | 188° |
| 2026-05-06 13:48 | -31.87960 | 115.98280 | 1045 ft | 146 kts | 190° |
| 2026-05-06 13:48 | -31.88930 | 115.97997 | 838 ft | 142 kts | 191° |
| 2026-05-06 13:49 | -31.89881 | 115.97713 | 657 ft | 141 kts | 192° |
| 2026-05-06 13:49 | -31.90827 | 115.97424 | 467 ft | 139 kts | 190° |
| 2026-05-06 13:49 | -31.91767 | 115.97159 | 286 ft | 138 kts | 190° |
| 2026-05-06 13:49 | -31.92712 | 115.96887 | 119 ft | 140 kts | 189° |
| 2026-05-06 13:50 | -31.93590 | 115.96634 | 51 ft | 114 kts | 195° |
| 2026-05-06 13:50 | -31.94214 | 115.96449 | 58 ft | 69 kts | 193° |
| 2026-05-06 13:50 | -31.94432 | 115.96428 | 60 ft | 25 kts | 147° |
| 2026-05-06 13:50 | -31.94489 | 115.96573 | 57 ft | 12 kts | 104° |
| 2026-05-06 13:51 | -31.94493 | 115.96590 | 59 ft | 0 kts | 104° |
| 2026-05-06 13:51 | -31.94496 | 115.96605 | 58 ft | 4 kts | 104° |
| 2026-05-06 13:51 | -31.94502 | 115.96632 | 61 ft | 7 kts | 104° |
| 2026-05-06 13:52 | -31.94467 | 115.96729 | 65 ft | 15 kts | 20° |
| 2026-05-06 13:52 | -31.94344 | 115.96766 | 63 ft | 20 kts | 14° |
| 2026-05-06 13:52 | -31.94215 | 115.96805 | 65 ft | 13 kts | 24° |
| 2026-05-06 13:52 | -31.94196 | 115.96893 | 63 ft | 2 kts | 97° |
| 2026-05-06 13:53 | -31.94187 | 115.96905 | 58 ft | 2 kts | 34° |
| 2026-05-06 13:53 | -31.94167 | 115.96913 | 58 ft | 4 kts | 13° |
| 2026-05-06 13:53 | -31.94149 | 115.96917 | 61 ft | 2 kts | 7° |
| 2026-05-06 13:53 | -31.94141 | 115.96918 | 63 ft | 0 kts | 8° |
| 2026-05-06 13:54 | -31.94138 | 115.96919 | 63 ft | 0 kts | 8° |